Time,TemperatureF,DewpointF,PressureIn,WindDirection,WindDirectionDegrees,WindSpeedMPH,WindSpeedGustMPH,Humidity,HourlyPrecipIn,Conditions,Clouds,dailyrainin,SolarRadiationWatts/m^2,SoftwareType,DateUTC
2013-03-31 00:01:00,53.0,40.0,-100.00,West,259,3.0,6.0,62,0.00,,,0.00,1.000000,,2013-03-31 07:01:00,
2013-03-31 01:32:00,50.0,39.0,-100.00,West,270,3.0,5.0,66,-99.99,,,0.00,1.000000,,2013-03-31 08:32:00,
2013-03-31 01:42:00,50.0,39.0,-100.00,West,270,3.0,5.0,66,-99.99,,,0.00,1.000000,,2013-03-31 08:42:00,
2013-03-31 01:52:00,50.0,39.0,-100.00,West,270,3.0,5.0,66,-99.99,,,0.00,1.000000,,2013-03-31 08:52:00,
2013-03-31 02:01:00,50.0,39.0,-100.00,West,270,3.0,5.0,66,-99.99,,,0.00,1.000000,,2013-03-31 09:01:00,
2013-03-31 02:33:00,47.0,37.0,-100.00,West,270,2.0,4.0,68,0.00,,,-99.99,1.000000,,2013-03-31 09:33:00,
2013-03-31 02:43:00,47.0,37.0,-100.00,West,270,2.0,4.0,68,0.00,,,-99.99,1.000000,,2013-03-31 09:43:00,
2013-03-31 02:53:00,47.0,37.0,-100.00,West,270,2.0,4.0,68,0.00,,,-99.99,1.000000,,2013-03-31 09:53:00,
2013-03-31 03:03:00,47.0,37.0,-100.00,West,270,2.0,4.0,68,0.00,,,-99.99,1.000000,,2013-03-31 10:03:00,
2013-03-31 03:33:00,45.0,35.0,-100.00,SW,227,1.0,4.0,67,0.00,,,0.00,1.000000,,2013-03-31 10:33:00,
2013-03-31 03:42:00,45.0,35.0,-100.00,SW,227,1.0,4.0,67,0.00,,,0.00,1.000000,,2013-03-31 10:42:00,
2013-03-31 03:53:00,45.0,35.0,-100.00,SW,227,1.0,4.0,67,0.00,,,0.00,1.000000,,2013-03-31 10:53:00,
2013-03-31 04:02:00,45.0,35.0,-100.00,SW,227,1.0,4.0,67,0.00,,,0.00,1.000000,,2013-03-31 11:02:00,
2013-03-31 04:33:00,44.0,36.0,-100.00,WSW,251,3.0,6.0,74,0.00,,,0.00,1.000000,,2013-03-31 11:33:00,
2013-03-31 04:42:00,44.0,36.0,-100.00,WSW,251,3.0,6.0,74,0.00,,,0.00,1.000000,,2013-03-31 11:42:00,
2013-03-31 04:52:00,44.0,36.0,-100.00,WSW,251,3.0,6.0,74,0.00,,,0.00,1.000000,,2013-03-31 11:52:00,
2013-03-31 05:02:00,44.0,36.0,-100.00,WSW,251,3.0,6.0,74,0.00,,,0.00,1.000000,,2013-03-31 12:02:00,
2013-03-31 06:32:00,40.0,34.0,-100.00,SW,220,3.0,5.0,80,-99.99,,,0.00,1.000000,,2013-03-31 13:32:00,
2013-03-31 06:42:00,40.0,34.0,-100.00,SW,220,3.0,5.0,80,-99.99,,,0.00,1.000000,,2013-03-31 13:42:00,
2013-03-31 06:53:00,40.0,34.0,-100.00,SW,220,3.0,5.0,80,-99.99,,,0.00,1.000000,,2013-03-31 13:53:00,
2013-03-31 07:02:00,40.0,34.0,-100.00,SW,220,3.0,5.0,80,-99.99,,,0.00,1.000000,,2013-03-31 14:02:00,
2013-03-31 07:33:00,38.0,34.0,-100.00,SW,215,3.0,4.0,84,0.00,,,0.00,6.000000,,2013-03-31 14:33:00,
2013-03-31 07:43:00,38.0,34.0,-100.00,SW,215,3.0,4.0,84,0.00,,,0.00,6.000000,,2013-03-31 14:43:00,
2013-03-31 07:52:00,38.0,34.0,-100.00,SW,215,3.0,4.0,84,0.00,,,0.00,6.000000,,2013-03-31 14:52:00,
2013-03-31 08:02:00,38.0,34.0,-100.00,SW,215,3.0,4.0,84,0.00,,,0.00,6.000000,,2013-03-31 15:02:00,
2013-03-31 08:34:00,45.0,40.0,-100.00,SW,226,3.0,5.0,82,0.00,,,-99.99,109.000000,,2013-03-31 15:34:00,
2013-03-31 08:43:00,45.0,40.0,-100.00,SW,226,3.0,5.0,82,0.00,,,-99.99,109.000000,,2013-03-31 15:43:00,
2013-03-31 08:53:00,45.0,40.0,-100.00,SW,226,3.0,5.0,82,0.00,,,-99.99,109.000000,,2013-03-31 15:53:00,
2013-03-31 09:02:00,45.0,40.0,-100.00,SW,226,3.0,5.0,82,0.00,,,-99.99,109.000000,,2013-03-31 16:02:00,
2013-03-31 09:34:00,52.0,41.0,-100.00,East,95,2.0,4.0,66,0.00,,,-99.99,291.000000,,2013-03-31 16:34:00,
2013-03-31 09:43:00,52.0,41.0,-100.00,East,95,2.0,4.0,66,0.00,,,-99.99,291.000000,,2013-03-31 16:43:00,
2013-03-31 09:53:00,52.0,41.0,-100.00,East,95,2.0,4.0,66,0.00,,,-99.99,291.000000,,2013-03-31 16:53:00,
2013-03-31 10:02:00,52.0,41.0,-100.00,East,95,2.0,4.0,66,0.00,,,-99.99,291.000000,,2013-03-31 17:02:00,
2013-03-31 10:32:00,56.0,41.0,-100.00,ESE,104,3.0,5.0,56,0.00,,,0.00,432.000000,,2013-03-31 17:32:00,
2013-03-31 10:43:00,56.0,41.0,-100.00,ESE,104,3.0,5.0,56,0.00,,,0.00,432.000000,,2013-03-31 17:43:00,
2013-03-31 10:52:00,56.0,41.0,-100.00,ESE,104,3.0,5.0,56,0.00,,,0.00,432.000000,,2013-03-31 17:52:00,
2013-03-31 11:02:00,56.0,41.0,-100.00,ESE,104,3.0,5.0,56,0.00,,,0.00,432.000000,,2013-03-31 18:02:00,
2013-03-31 11:33:00,61.0,40.0,-100.00,ENE,74,4.0,6.0,46,0.00,,,0.00,557.000000,,2013-03-31 18:33:00,
2013-03-31 11:42:00,61.0,40.0,-100.00,ENE,74,4.0,6.0,46,0.00,,,0.00,557.000000,,2013-03-31 18:42:00,
2013-03-31 11:53:00,61.0,40.0,-100.00,ENE,74,4.0,6.0,46,0.00,,,0.00,557.000000,,2013-03-31 18:53:00,
2013-03-31 12:02:00,61.0,40.0,-100.00,ENE,74,4.0,6.0,46,0.00,,,0.00,557.000000,,2013-03-31 19:02:00,
2013-03-31 12:33:00,65.0,40.0,-100.00,SE,140,3.0,8.0,40,0.00,,,-99.99,659.000000,,2013-03-31 19:33:00,
2013-03-31 12:43:00,65.0,40.0,-100.00,SE,140,3.0,8.0,40,0.00,,,-99.99,659.000000,,2013-03-31 19:43:00,
2013-03-31 12:54:00,65.0,40.0,-100.00,SE,140,3.0,8.0,40,0.00,,,-99.99,659.000000,,2013-03-31 19:54:00,
2013-03-31 13:02:00,65.0,40.0,-100.00,SE,140,3.0,8.0,40,0.00,,,-99.99,659.000000,,2013-03-31 20:02:00,
2013-03-31 13:34:00,69.0,41.0,-100.00,NE,43,7.0,12.0,36,0.00,,,0.00,727.000000,,2013-03-31 20:34:00,
2013-03-31 13:43:00,69.0,41.0,-100.00,NE,43,7.0,12.0,36,0.00,,,0.00,727.000000,,2013-03-31 20:43:00,
2013-03-31 13:52:00,69.0,41.0,-100.00,NE,43,7.0,12.0,36,0.00,,,0.00,727.000000,,2013-03-31 20:52:00,
2013-03-31 14:02:00,69.0,41.0,-100.00,NE,43,7.0,12.0,36,0.00,,,0.00,727.000000,,2013-03-31 21:02:00,
2013-03-31 14:34:00,71.0,39.0,-100.00,NE,46,8.0,16.0,31,0.00,,,0.00,683.000000,,2013-03-31 21:34:00,
2013-03-31 14:43:00,71.0,39.0,-100.00,NE,46,8.0,16.0,31,0.00,,,0.00,683.000000,,2013-03-31 21:43:00,
2013-03-31 14:53:00,71.0,39.0,-100.00,NE,46,8.0,16.0,31,0.00,,,0.00,683.000000,,2013-03-31 21:53:00,
2013-03-31 15:03:00,71.0,39.0,-100.00,NE,46,8.0,16.0,31,0.00,,,0.00,683.000000,,2013-03-31 22:03:00,
2013-03-31 15:33:00,72.0,38.0,-100.00,NNE,17,6.0,13.0,29,0.00,,,0.00,634.000000,,2013-03-31 22:33:00,
2013-03-31 15:43:00,72.0,38.0,-100.00,NNE,17,6.0,13.0,29,0.00,,,0.00,634.000000,,2013-03-31 22:43:00,
2013-03-31 16:02:00,72.0,38.0,-100.00,NNE,17,6.0,13.0,29,0.00,,,0.00,634.000000,,2013-03-31 23:02:00,
2013-03-31 16:33:00,73.0,37.0,-100.00,ENE,73,7.0,15.0,27,0.00,,,0.00,559.000000,,2013-03-31 23:33:00,
2013-03-31 16:43:00,73.0,37.0,-100.00,ENE,73,7.0,15.0,27,0.00,,,0.00,559.000000,,2013-03-31 23:43:00,
2013-03-31 16:53:00,73.0,37.0,-100.00,ENE,73,7.0,15.0,27,0.00,,,0.00,559.000000,,2013-03-31 23:53:00,
2013-03-31 17:02:00,73.0,37.0,-100.00,ENE,73,7.0,15.0,27,0.00,,,0.00,559.000000,,2013-04-01 00:02:00,
2013-03-31 17:33:00,72.0,35.0,-100.00,NE,41,9.0,16.0,26,0.00,,,0.00,447.000000,,2013-04-01 00:33:00,
2013-03-31 17:43:00,72.0,35.0,-100.00,NE,41,9.0,16.0,26,0.00,,,0.00,447.000000,,2013-04-01 00:43:00,
2013-03-31 17:53:00,72.0,35.0,-100.00,NE,41,9.0,16.0,26,0.00,,,0.00,447.000000,,2013-04-01 00:53:00,
2013-03-31 18:02:00,72.0,35.0,-100.00,NE,41,9.0,16.0,26,0.00,,,0.00,447.000000,,2013-04-01 01:02:00,
2013-03-31 18:33:00,70.0,35.0,-100.00,NE,34,10.0,15.0,28,0.00,,,0.00,265.000000,,2013-04-01 01:33:00,
2013-03-31 18:43:00,70.0,35.0,-100.00,NE,34,10.0,15.0,28,0.00,,,0.00,265.000000,,2013-04-01 01:43:00,
2013-03-31 18:53:00,70.0,35.0,-100.00,NE,34,10.0,15.0,28,0.00,,,0.00,265.000000,,2013-04-01 01:53:00,
2013-03-31 19:02:00,70.0,35.0,-100.00,NE,34,10.0,15.0,28,0.00,,,0.00,265.000000,,2013-04-01 02:02:00,
2013-03-31 19:33:00,65.0,34.0,-100.00,NNE,19,6.0,15.0,32,0.00,,,0.00,100.000000,,2013-04-01 02:33:00,
2013-03-31 19:43:00,65.0,34.0,-100.00,NNE,19,6.0,15.0,32,0.00,,,0.00,100.000000,,2013-04-01 02:43:00,
2013-03-31 19:53:00,65.0,34.0,-100.00,NNE,19,6.0,15.0,32,0.00,,,0.00,100.000000,,2013-04-01 02:53:00,
2013-03-31 20:02:00,65.0,34.0,-100.00,NNE,19,6.0,15.0,32,0.00,,,0.00,100.000000,,2013-04-01 03:02:00,
2013-03-31 20:35:00,58.0,36.0,-100.00,WSW,251,3.0,7.0,43,0.00,,,0.00,6.000000,,2013-04-01 03:35:00,
2013-03-31 20:43:00,58.0,36.0,-100.00,WSW,251,3.0,7.0,43,0.00,,,0.00,6.000000,,2013-04-01 03:43:00,
2013-03-31 20:53:00,58.0,36.0,-100.00,WSW,251,3.0,7.0,43,0.00,,,0.00,6.000000,,2013-04-01 03:53:00,
2013-03-31 21:02:00,58.0,36.0,-100.00,WSW,251,3.0,7.0,43,0.00,,,0.00,6.000000,,2013-04-01 04:02:00,
2013-03-31 21:33:00,59.0,35.0,-100.00,WNW,288,5.0,9.0,41,0.00,,,0.00,1.000000,,2013-04-01 04:33:00,
2013-03-31 21:43:00,59.0,35.0,-100.00,WNW,288,5.0,9.0,41,0.00,,,0.00,1.000000,,2013-04-01 04:43:00,
2013-03-31 21:53:00,59.0,35.0,-100.00,WNW,288,5.0,9.0,41,0.00,,,0.00,1.000000,,2013-04-01 04:53:00,
2013-03-31 22:02:00,59.0,35.0,-100.00,WNW,288,5.0,9.0,41,0.00,,,0.00,1.000000,,2013-04-01 05:02:00,
2013-03-31 22:33:00,57.0,38.0,-100.00,NW,304,5.0,12.0,49,0.00,,,0.00,1.000000,,2013-04-01 05:33:00,
2013-03-31 22:43:00,57.0,38.0,-100.00,NW,304,5.0,12.0,49,0.00,,,0.00,1.000000,,2013-04-01 05:43:00,
2013-03-31 22:53:00,57.0,38.0,-100.00,NW,304,5.0,12.0,49,0.00,,,0.00,1.000000,,2013-04-01 05:53:00,
2013-03-31 23:02:00,57.0,38.0,-100.00,NW,304,5.0,12.0,49,0.00,,,0.00,1.000000,,2013-04-01 06:02:00,
2013-03-31 23:33:00,54.0,39.0,-100.00,NNE,23,2.0,15.0,56,0.00,,,0.00,1.000000,,2013-04-01 06:33:00,
2013-03-31 23:43:00,54.0,39.0,-100.00,NNE,23,2.0,15.0,56,0.00,,,0.00,1.000000,,2013-04-01 06:43:00,
2013-03-31 23:52:00,54.0,39.0,-100.00,NNE,23,2.0,15.0,56,0.00,,,0.00,1.000000,,2013-04-01 06:52:00,